Castro Verd, Portugal
Current Conditions -  °F | °C
As of 7:00 AM on Wednesday 22 Oct 2014 (Local Time) from LPBJ Reporting Station
Clear Clear  
Wind Chill: 68°   Ceiling: Unl
Heat Index: 68°   Visibility: 6mi
Dew Point: 57°   Wind: 6mph
Humidity: 68%   Direction: 110°ESE
Pressure: 30.3"   Gusts: NA
Location:  37.7°N, 8.08°W
Report Text: LPBJ 220600Z 11005KT CAVOK 20/14 Q1026
Loading
Personal Weather Stations






























Interactive Weather Map
Tropical Storm Tracking
New forecast layout! Learn more

10-Day Weather Forecast

Advertisements
Track Severe Weather on mobile